Time;durP1;ratioP1;P1;durP2;ratioP2;P2;SDS_P1;SDS_P2;PMS_P1;PMS_P2;Temp;Humidity;BMP_temperature;BMP_pressure;BME280_temperature;BME280_humidity;BME280_pressure;Samples;Min_cycle;Max_cycle;Signal;HPM_P1;HPM_P2
2022/04/03 00:02:21;;;;;;;6.65;3.45;;;;;;;4.79;70.34;97800.79;1714255;84;20921;-86
2022/04/03 00:04:47;;;;;;;6.15;3.50;;;;;;;4.86;70.69;97806.67;1720126;83;21015;-85
2022/04/03 00:07:14;;;;;;;7.00;3.60;;;;;;;4.84;71.03;97800.26;1719437;83;21441;-86
2022/04/03 00:09:40;;;;;;;7.12;3.90;;;;;;;4.85;70.92;97798.07;1733340;83;21009;-85
2022/04/03 00:12:07;;;;;;;5.97;3.58;;;;;;;4.83;70.91;97797.27;1727055;83;20981;-84
2022/04/03 00:14:34;;;;;;;5.95;3.20;;;;;;;4.81;69.61;97803.34;1734103;83;20976;-85
2022/04/03 00:17:01;;;;;;;6.22;2.90;;;;;;;4.87;70.33;97798.88;1723298;82;21023;-82
2022/04/03 00:19:28;;;;;;;6.03;3.37;;;;;;;4.84;69.49;97805.41;1716029;83;21468;-81
2022/04/03 00:21:54;;;;;;;5.00;2.90;;;;;;;4.83;69.94;97815.28;1760461;80;21014;-82
2022/04/03 00:24:21;;;;;;;5.45;3.00;;;;;;;4.83;69.71;97813.16;1753583;81;21002;-86
2022/04/03 00:26:48;;;;;;;6.00;2.80;;;;;;;4.83;69.72;97817.02;1758518;81;21424;-83
2022/04/03 00:29:15;;;;;;;4.87;3.10;;;;;;;4.82;69.90;97817.47;1718889;83;21058;-85
2022/04/03 00:31:41;;;;;;;3.40;2.00;;;;;;;4.86;69.50;97810.53;1729751;83;21522;-85
2022/04/03 00:34:08;;;;;;;3.20;2.12;;;;;;;4.84;69.45;97810.55;1733047;83;20964;-86
2022/04/03 00:36:35;;;;;;;5.37;2.67;;;;;;;4.87;68.55;97816.07;1732443;82;20979;-84
2022/04/03 00:39:01;;;;;;;3.85;2.22;;;;;;;4.91;69.46;97825.42;1762778;81;21466;-81
2022/04/03 00:41:28;;;;;;;4.25;2.47;;;;;;;4.91;69.15;97827.55;1735666;81;21027;-83
2022/04/03 00:43:55;;;;;;;3.83;2.27;;;;;;;4.97;69.57;97826.15;1711482;83;20984;-86
2022/04/03 00:46:21;;;;;;;5.72;2.70;;;;;;;4.95;68.93;97829.62;1713914;83;21507;-85
2022/04/03 00:48:50;;;;;;;5.05;2.90;;;;;;;4.85;68.43;97825.56;1724927;83;20956;-84
2022/04/03 00:51:18;;;;;;;5.83;2.90;;;;;;;4.74;68.50;97825.81;1709595;83;20984;-85
2022/04/03 00:53:44;;;;;;;5.45;3.00;;;;;;;4.70;68.32;97837.06;1725250;82;21448;-84
2022/04/03 00:56:11;;;;;;;6.00;3.20;;;;;;;4.65;68.49;97832.44;1729977;82;20979;-83
2022/04/03 00:58:38;;;;;;;4.53;2.77;;;;;;;4.65;68.69;97827.29;1728037;83;20976;-88
2022/04/03 01:01:05;;;;;;;4.80;2.83;;;;;;;4.61;68.98;97818.78;1734033;82;20979;-85
2022/04/03 01:03:32;;;;;;;5.28;2.98;;;;;;;4.58;68.75;97827.87;1729952;83;21047;-82
2022/04/03 01:05:59;;;;;;;5.90;3.20;;;;;;;4.54;68.64;97827.53;1717955;82;21065;-87
2022/04/03 01:08:26;;;;;;;6.55;4.10;;;;;;;4.54;68.71;97830.94;1715394;83;20958;-87
2022/04/03 01:10:53;;;;;;;6.50;3.62;;;;;;;4.53;67.15;97828.39;1697482;83;20933;-83
2022/04/03 01:13:21;;;;;;;6.53;3.70;;;;;;;4.53;67.78;97833.54;1707686;81;20925;-84
2022/04/03 01:15:57;;;;;;;6.78;4.28;;;;;;;4.48;67.26;97835.38;1696666;83;21072;-87
2022/04/03 01:18:23;;;;;;;7.62;3.55;;;;;;;4.49;67.68;97843.05;1703901;84;21032;-81
2022/04/03 01:20:52;;;;;;;7.20;4.30;;;;;;;4.39;68.03;97848.81;1714368;83;21012;-82
2022/04/03 01:23:20;;;;;;;7.90;4.45;;;;;;;4.35;68.86;97848.47;1715103;82;21928;-85
2022/04/03 01:25:47;;;;;;;6.53;3.37;;;;;;;4.31;70.08;97854.56;1708689;84;21521;-85
2022/04/03 01:28:14;;;;;;;6.12;3.77;;;;;;;4.31;69.73;97848.58;1700021;84;21008;-82
2022/04/03 01:30:41;;;;;;;7.00;4.15;;;;;;;4.32;70.11;97856.72;1703259;84;20965;-83
2022/04/03 01:33:07;;;;;;;6.87;3.90;;;;;;;4.26;69.71;97847.80;1714667;83;21464;-86
2022/04/03 01:35:34;;;;;;;8.40;4.50;;;;;;;4.25;69.44;97847.41;1699088;84;21019;-86
2022/04/03 01:38:01;;;;;;;7.95;4.22;;;;;;;4.19;69.46;97847.92;1714781;83;21324;-83
2022/04/03 01:40:27;;;;;;;7.80;4.28;;;;;;;4.20;69.40;97851.37;1707866;84;21008;-85
2022/04/03 01:42:54;;;;;;;8.05;4.53;;;;;;;4.15;70.02;97849.31;1702440;83;20976;-88
2022/04/03 01:45:21;;;;;;;7.90;4.25;;;;;;;4.11;69.11;97857.97;1708389;84;20984;-86
2022/04/03 01:47:48;;;;;;;7.70;3.98;;;;;;;4.09;69.40;97846.41;1710474;84;20997;-84
2022/04/03 01:50:14;;;;;;;8.78;4.72;;;;;;;4.07;69.81;97849.45;1703846;84;21080;-81
2022/04/03 01:52:41;;;;;;;8.85;4.70;;;;;;;4.04;70.08;97843.52;1714262;84;21004;-81
2022/04/03 01:55:09;;;;;;;8.70;4.22;;;;;;;4.01;70.17;97841.86;1715157;83;20985;-82
2022/04/03 01:57:36;;;;;;;11.08;6.10;;;;;;;4.03;70.24;97838.81;1714716;84;20933;-88
2022/04/03 02:00:09;;;;;;;9.80;4.97;;;;;;;3.98;69.75;97845.79;1713886;83;21028;-87
2022/04/03 02:02:37;;;;;;;;;;;;;;;3.95;69.81;97847.12;1707062;84;21013;-85
2022/04/03 02:05:06;;;;;;;9.78;4.40;;;;;;;3.90;69.27;97857.91;1707003;83;20391;-85
2022/04/03 02:07:33;;;;;;;7.90;4.40;;;;;;;3.89;69.11;97857.08;1711367;83;20950;-85
2022/04/03 02:10:03;;;;;;;9.15;5.15;;;;;;;3.89;69.22;97853.22;1706315;83;21037;-85
2022/04/03 02:12:30;;;;;;;8.43;4.40;;;;;;;3.89;69.13;97842.09;1697866;84;21040;-85
2022/04/03 02:14:57;;;;;;;9.90;4.58;;;;;;;3.87;69.71;97850.27;1715491;84;20980;-79
2022/04/03 02:17:25;;;;;;;14.25;5.37;;;;;;;3.87;69.81;97847.70;1711528;83;21489;-80
2022/04/03 02:19:51;;;;;;;10.72;4.72;;;;;;;3.85;70.20;97850.73;1712231;83;21508;-80
2022/04/03 02:22:18;;;;;;;8.90;4.17;;;;;;;3.89;69.92;97847.23;1708487;82;21115;-84
2022/04/03 02:24:44;;;;;;;9.40;4.67;;;;;;;3.88;70.31;97851.54;1713348;83;21024;-85
2022/04/03 02:27:11;;;;;;;10.93;5.30;;;;;;;3.89;70.22;97853.22;1711231;83;20989;-85
2022/04/03 02:29:37;;;;;;;10.25;4.85;;;;;;;3.90;70.09;97849.78;1704945;84;21032;-84
2022/04/03 02:32:05;;;;;;;7.80;4.30;;;;;;;3.88;70.75;97853.23;1705239;84;20996;-86
2022/04/03 02:34:31;;;;;;;9.15;4.80;;;;;;;3.91;70.37;97863.48;1702768;83;21040;-81
2022/04/03 02:36:58;;;;;;;8.53;4.20;;;;;;;3.83;70.40;97860.20;1702535;84;20945;-83
2022/04/03 02:39:25;;;;;;;8.70;4.60;;;;;;;3.87;70.21;97861.84;1710042;83;21020;-82
2022/04/03 02:41:52;;;;;;;10.68;4.83;;;;;;;3.83;71.06;97867.47;1714996;84;20961;-79
2022/04/03 02:44:19;;;;;;;9.10;4.85;;;;;;;3.85;71.75;97861.86;1712824;83;21758;-79
2022/04/03 02:46:45;;;;;;;9.20;4.37;;;;;;;3.81;72.28;97870.51;1716000;84;20953;-80
2022/04/03 02:49:12;;;;;;;9.83;5.55;;;;;;;3.81;72.60;97868.38;1707937;83;20989;-80
2022/04/03 02:51:39;;;;;;;10.23;5.80;;;;;;;3.83;72.57;97866.63;1715522;83;20989;-81
2022/04/03 02:54:06;;;;;;;10.63;5.87;;;;;;;3.81;73.11;97866.65;1713788;83;20985;-82
2022/04/03 02:56:33;;;;;;;12.15;6.10;;;;;;;3.83;72.62;97865.34;1713018;84;20941;-86
2022/04/03 02:58:59;;;;;;;10.32;5.62;;;;;;;3.80;72.77;97866.26;1710612;83;21000;-88
2022/04/03 03:01:26;;;;;;;10.63;5.47;;;;;;;3.72;73.30;97865.52;1714844;83;20989;-84
2022/04/03 03:03:52;;;;;;;12.28;5.85;;;;;;;3.69;73.49;97868.16;1714101;84;20973;-86
2022/04/03 03:06:19;;;;;;;10.23;4.67;;;;;;;3.72;72.52;97863.81;1714043;83;21000;-82
2022/04/03 03:08:46;;;;;;;9.35;4.95;;;;;;;3.68;72.65;97869.02;1710108;83;21507;-82
2022/04/03 03:11:12;;;;;;;9.08;4.55;;;;;;;3.63;72.97;97870.39;1725902;83;21000;-79
2022/04/03 03:13:39;;;;;;;11.93;5.20;;;;;;;3.57;73.61;97870.49;1734873;82;21008;-83
2022/04/03 03:16:06;;;;;;;10.95;5.45;;;;;;;3.54;73.99;97869.24;1733032;82;20968;-81
2022/04/03 03:18:32;;;;;;;12.98;5.53;;;;;;;3.50;74.36;97868.88;1732490;82;20988;-82
2022/04/03 03:20:59;;;;;;;11.43;5.75;;;;;;;3.50;74.08;97870.17;1715244;83;21010;-85
2022/04/03 03:23:27;;;;;;;11.18;5.92;;;;;;;3.49;73.55;97876.20;1725844;83;21010;-85
2022/04/03 03:25:53;;;;;;;11.40;5.97;;;;;;;3.47;73.20;97874.93;1726643;83;20983;-85
2022/04/03 03:28:20;;;;;;;13.93;6.42;;;;;;;3.47;72.86;97874.09;1719919;83;20961;-84
2022/04/03 03:30:47;;;;;;;12.73;6.72;;;;;;;3.42;73.06;97883.58;1730969;82;20996;-89
2022/04/03 03:33:14;;;;;;;11.40;5.33;;;;;;;3.41;73.16;97887.88;1718921;83;20984;-85
2022/04/03 03:35:40;;;;;;;10.30;5.72;;;;;;;3.33;73.13;97872.58;1717015;82;20967;-81
2022/04/03 03:38:08;;;;;;;11.80;5.50;;;;;;;3.36;73.08;97886.67;1736584;83;20992;-83
2022/04/03 03:40:38;;;;;;;12.40;5.75;;;;;;;3.36;73.35;97894.38;1736704;83;20972;-81
2022/04/03 03:43:04;;;;;;;11.43;5.53;;;;;;;3.35;73.70;97895.23;1736068;83;20984;-81
2022/04/03 03:45:31;;;;;;;12.63;5.75;;;;;;;3.37;73.45;97901.65;1735882;82;20988;-81
2022/04/03 03:47:57;;;;;;;11.65;6.35;;;;;;;3.41;73.57;97903.30;1732264;82;21527;-82
2022/04/03 03:50:25;;;;;;;13.55;6.75;;;;;;;3.39;73.59;97907.16;1733631;83;20965;-84
2022/04/03 03:52:51;;;;;;;10.78;5.28;;;;;;;3.35;73.60;97908.09;1762018;81;20978;-83
2022/04/03 03:55:18;;;;;;;13.03;6.20;;;;;;;3.42;73.17;97916.53;1755853;81;21510;-85
2022/04/03 03:57:46;;;;;;;12.70;6.30;;;;;;;3.41;73.39;97916.59;1760735;81;20991;-84
2022/04/03 04:00:13;;;;;;;13.38;5.83;;;;;;;3.35;73.62;97917.52;1725854;83;20996;-80
2022/04/03 04:02:40;;;;;;;17.32;5.95;;;;;;;3.33;73.78;97923.12;1751906;81;21006;-82
2022/04/03 04:05:09;;;;;;;17.27;6.70;;;;;;;3.27;74.17;97917.63;1767167;81;21011;-81
2022/04/03 04:07:42;;;;;;;15.35;7.22;;;;;;;3.30;73.76;97920.17;1729815;83;21008;-81
2022/04/03 04:10:12;;;;;;;17.48;7.50;;;;;;;3.31;73.17;97930.00;1735428;82;21027;-79
2022/04/03 04:12:41;;;;;;;17.02;8.65;;;;;;;3.30;72.68;97938.15;1741028;82;20976;-82
2022/04/03 04:15:09;;;;;;;16.27;8.28;;;;;;;3.25;71.34;97933.95;1727874;82;21017;-83
2022/04/03 04:17:40;;;;;;;17.95;8.58;;;;;;;3.26;71.25;97937.75;1722235;82;21078;-83
2022/04/03 04:20:11;;;;;;;19.15;9.60;;;;;;;3.24;70.93;97945.91;1721025;82;21524;-81
2022/04/03 04:22:38;;;;;;;17.73;8.43;;;;;;;3.17;71.26;97948.17;1721919;82;20996;-80
2022/04/03 04:25:05;;;;;;;20.45;8.00;;;;;;;3.18;71.25;97951.14;1719020;83;20993;-80
2022/04/03 04:27:32;;;;;;;22.32;8.15;;;;;;;3.23;71.14;97948.53;1722570;82;21516;-80
2022/04/03 04:29:59;;;;;;;18.82;8.20;;;;;;;3.24;71.33;97948.92;1720034;82;20996;-81
2022/04/03 04:32:26;;;;;;;21.23;9.80;;;;;;;3.24;71.43;97966.47;1733039;82;21544;-81
2022/04/03 04:34:52;;;;;;;17.75;8.58;;;;;;;3.17;70.83;97962.30;1709581;82;20996;-82
2022/04/03 04:37:19;;;;;;;23.95;10.88;;;;;;;3.24;71.04;97967.75;1719764;81;21014;-81
2022/04/03 04:39:46;;;;;;;23.07;10.63;;;;;;;3.21;70.95;97978.08;1713214;83;21004;-79
2022/04/03 04:42:14;;;;;;;21.40;10.60;;;;;;;3.23;71.02;97972.48;1712742;83;20955;-83
2022/04/03 04:44:41;;;;;;;19.95;9.70;;;;;;;3.24;70.91;97979.75;1704030;81;20981;-79
2022/04/03 04:47:08;;;;;;;20.23;9.43;;;;;;;3.17;71.19;97987.98;1723192;82;21464;-81
2022/04/03 04:49:35;;;;;;;19.20;9.80;;;;;;;3.21;71.04;97991.37;1723926;82;20925;-81
2022/04/03 04:52:03;;;;;;;20.48;9.68;;;;;;;3.18;71.36;97987.09;1724151;83;20961;-79
2022/04/03 04:54:30;;;;;;;24.43;11.35;;;;;;;3.22;71.55;97987.47;1722205;81;20968;-81
2022/04/03 04:56:58;;;;;;;25.12;11.75;;;;;;;3.22;71.20;98000.75;1712121;82;21092;-85
2022/04/03 04:59:25;;;;;;;26.10;12.07;;;;;;;3.23;71.18;98005.04;1722310;82;20984;-81
2022/04/03 05:01:56;;;;;;;23.65;11.10;;;;;;;3.15;71.38;98010.27;1718798;82;20975;-82
2022/04/03 05:04:20;;;;;;;24.43;11.28;;;;;;;3.16;71.36;98016.67;1722356;82;20992;-83
2022/04/03 05:06:47;;;;;;;24.45;10.95;;;;;;;3.08;71.62;98015.05;1730173;81;20995;-81
2022/04/03 05:09:13;;;;;;;18.95;9.35;;;;;;;3.07;71.42;98030.06;1731235;83;21011;-81
2022/04/03 05:11:41;;;;;;;21.42;10.55;;;;;;;3.08;71.40;98027.45;1721230;83;20976;-80
2022/04/03 05:14:08;;;;;;;20.15;9.43;;;;;;;3.09;71.49;98033.46;1728688;83;21018;-81
2022/04/03 05:16:35;;;;;;;22.90;11.50;;;;;;;3.15;71.36;98031.66;1702234;82;20980;-80
2022/04/03 05:19:02;;;;;;;22.58;11.15;;;;;;;3.15;71.56;98035.95;1710960;84;20968;-81
2022/04/03 05:21:29;;;;;;;21.60;11.28;;;;;;;3.11;71.29;98035.58;1705975;82;21059;-82
2022/04/03 05:23:56;;;;;;;21.27;10.30;;;;;;;3.13;70.75;98027.42;1711457;84;21001;-83
2022/04/03 05:26:22;;;;;;;22.27;10.85;;;;;;;3.15;70.51;98034.23;1730380;83;20987;-84
2022/04/03 05:28:49;;;;;;;20.27;10.38;;;;;;;3.14;70.11;98038.09;1726518;83;20995;-80
2022/04/03 05:31:15;;;;;;;20.12;9.70;;;;;;;3.10;69.84;98042.84;1713934;83;21027;-83
2022/04/03 05:33:42;;;;;;;17.87;8.03;;;;;;;3.12;69.52;98026.58;1721093;83;21028;-85
2022/04/03 05:36:08;;;;;;;16.45;8.53;;;;;;;3.05;68.23;98046.77;1709273;83;20992;-80
2022/04/03 05:38:35;;;;;;;14.98;8.28;;;;;;;3.08;67.68;98055.70;1727382;83;20991;-80
2022/04/03 05:41:02;;;;;;;11.95;5.62;;;;;;;3.06;67.13;98063.86;1728635;83;21511;-81
2022/04/03 05:43:28;;;;;;;16.75;8.80;;;;;;;3.10;67.20;98060.83;1727153;83;21011;-79
2022/04/03 05:45:55;;;;;;;16.57;7.95;;;;;;;3.14;68.08;98065.93;1728064;83;20992;-83
2022/04/03 05:48:21;;;;;;;14.65;6.50;;;;;;;3.14;67.74;98068.50;1729009;83;21056;-81
2022/04/03 05:50:50;;;;;;;14.50;7.53;;;;;;;3.08;66.39;98074.95;1729752;83;21015;-81
2022/04/03 05:53:16;;;;;;;13.18;7.45;;;;;;;3.12;67.03;98083.08;1726920;83;20952;-82
2022/04/03 05:55:43;;;;;;;15.20;6.65;;;;;;;3.12;67.13;98080.51;1713220;83;20988;-83
2022/04/03 05:58:10;;;;;;;13.93;6.90;;;;;;;3.15;66.84;98088.16;1724402;83;20936;-82
2022/04/03 06:00:37;;;;;;;16.87;6.67;;;;;;;3.12;67.14;98089.91;1728160;83;20964;-84
2022/04/03 06:03:04;;;;;;;13.22;7.00;;;;;;;3.15;67.61;98096.30;1711428;83;21035;-81
2022/04/03 06:05:34;;;;;;;16.42;7.67;;;;;;;3.13;67.75;98098.89;1718730;83;21007;-82
2022/04/03 06:08:05;;;;;;;17.27;8.08;;;;;;;3.16;67.93;98097.99;1701993;84;20977;-82
2022/04/03 06:10:34;;;;;;;16.30;8.73;;;;;;;3.13;68.59;98095.48;1708372;84;20989;-83
2022/04/03 06:13:04;;;;;;;20.50;7.85;;;;;;;3.10;69.01;98089.91;1701763;84;21004;-81
2022/04/03 06:15:33;;;;;;;15.95;8.18;;;;;;;3.08;69.61;98094.22;1697397;83;20965;-81
2022/04/03 06:18:02;;;;;;;14.85;7.60;;;;;;;3.10;69.54;98102.76;1701262;84;20963;-81
2022/04/03 06:20:29;;;;;;;19.73;8.00;;;;;;;3.08;69.92;98104.94;1720827;83;21751;-82
2022/04/03 06:22:56;;;;;;;28.40;12.33;;;;;;;3.09;70.08;98100.23;1723287;82;21087;-80
2022/04/03 06:25:23;;;;;;;19.45;9.63;;;;;;;3.10;70.43;98108.34;1708287;82;20996;-82
2022/04/03 06:27:51;;;;;;;25.62;14.15;;;;;;;3.01;70.72;98105.89;1722805;82;20965;-83
2022/04/03 06:30:18;;;;;;;17.73;9.63;;;;;;;3.06;70.40;98105.39;1718466;83;20956;-83
2022/04/03 06:32:45;;;;;;;19.07;10.15;;;;;;;2.96;71.07;98109.36;1722270;81;20989;-84
2022/04/03 06:35:11;;;;;;;17.45;9.13;;;;;;;2.95;71.08;98114.06;1718951;82;20968;-80
2022/04/03 06:37:38;;;;;;;18.12;9.08;;;;;;;2.90;71.38;98112.39;1720293;82;20968;-80
2022/04/03 06:40:07;;;;;;;19.12;9.05;;;;;;;2.92;71.53;98115.36;1714625;83;20976;-79
2022/04/03 06:42:34;;;;;;;19.95;9.38;;;;;;;2.90;72.34;98118.81;1718018;83;21535;-80
2022/04/03 06:45:02;;;;;;;16.57;8.75;;;;;;;2.90;72.38;98120.10;1714230;83;20971;-82
2022/04/03 06:47:31;;;;;;;19.73;9.65;;;;;;;2.90;72.61;98123.51;1715368;82;21028;-81
2022/04/03 06:49:58;;;;;;;20.82;9.45;;;;;;;2.87;72.68;98124.84;1722770;82;20980;-78
2022/04/03 06:52:24;;;;;;;20.95;10.80;;;;;;;2.86;73.01;98124.41;1709514;83;20949;-81
2022/04/03 06:54:51;;;;;;;20.95;11.83;;;;;;;2.88;72.75;98128.25;1723194;82;21559;-84
2022/04/03 06:57:19;;;;;;;18.82;10.18;;;;;;;2.88;72.85;98134.23;1715526;82;21727;-83
2022/04/03 06:59:46;;;;;;;19.35;9.75;;;;;;;2.82;72.56;98136.86;1715248;82;21001;-80
2022/04/03 07:02:12;;;;;;;23.45;9.73;;;;;;;2.80;72.46;98143.72;1719095;82;20992;-81
2022/04/03 07:04:39;;;;;;;17.25;8.78;;;;;;;2.79;72.56;98146.73;1717703;83;20965;-80
2022/04/03 07:07:06;;;;;;;17.92;9.60;;;;;;;2.79;72.71;98145.44;1718196;83;21047;-80
2022/04/03 07:09:40;;;;;;;19.75;10.08;;;;;;;2.84;72.66;98145.83;1719993;83;21513;-82
2022/04/03 07:12:08;;;;;;;20.32;10.32;;;;;;;2.84;72.24;98157.38;1718535;81;20968;-80
2022/04/03 07:14:35;;;;;;;22.85;10.70;;;;;;;2.86;72.25;98159.06;1710924;82;21528;-81
2022/04/03 07:17:02;;;;;;;18.92;10.13;;;;;;;2.81;71.17;98154.86;1717905;82;20995;-82
2022/04/03 07:19:29;;;;;;;25.52;12.10;;;;;;;2.84;71.25;98157.38;1711703;82;20988;-84
2022/04/03 07:21:57;;;;;;;24.72;8.53;;;;;;;2.81;71.11;98167.26;1708397;82;21095;-82
2022/04/03 07:24:25;;;;;;;21.75;10.75;;;;;;;2.76;70.36;98162.14;1712719;83;20996;-82
2022/04/03 07:26:53;;;;;;;27.52;11.53;;;;;;;2.77;70.13;98174.13;1723861;82;20965;-80
2022/04/03 07:29:25;;;;;;;18.80;9.33;;;;;;;2.76;70.35;98173.69;1716597;83;21495;-79
2022/04/03 07:31:52;;;;;;;19.80;10.05;;;;;;;2.75;70.08;98174.57;1723972;82;21020;-82
2022/04/03 07:34:19;;;;;;;16.87;8.00;;;;;;;2.78;70.31;98173.25;1712664;82;20964;-83
2022/04/03 07:36:45;;;;;;;17.05;9.03;;;;;;;2.78;70.01;98182.67;1723418;82;21445;-82
2022/04/03 07:39:12;;;;;;;18.85;8.88;;;;;;;2.84;69.81;98186.91;1711788;82;20952;-81
2022/04/03 07:41:39;;;;;;;14.50;7.85;;;;;;;2.88;69.35;98189.42;1722585;83;21031;-82
2022/04/03 07:44:08;;;;;;;16.90;8.60;;;;;;;2.88;68.84;98197.13;1715432;82;20987;-82
2022/04/03 07:46:36;;;;;;;14.80;8.63;;;;;;;2.84;68.87;98199.30;1723317;83;20981;-84
2022/04/03 07:49:03;;;;;;;15.50;7.55;;;;;;;2.90;68.96;98201.81;1723794;83;21076;-82
2022/04/03 07:51:31;;;;;;;12.18;6.90;;;;;;;2.90;68.63;98204.38;1723113;82;21499;-82
2022/04/03 07:53:58;;;;;;;15.58;8.00;;;;;;;2.92;68.57;98203.94;1718146;82;20999;-81
2022/04/03 07:56:24;;;;;;;13.95;7.30;;;;;;;2.97;68.75;98215.47;1716609;82;20969;-82
2022/04/03 07:58:51;;;;;;;11.85;6.22;;;;;;;3.04;68.78;98212.41;1720623;82;20953;-85
2022/04/03 08:01:18;;;;;;;16.07;8.23;;;;;;;3.06;68.87;98218.37;1723506;82;20993;-81
2022/04/03 08:03:44;;;;;;;14.53;8.30;;;;;;;3.06;68.54;98219.22;1715670;81;21421;-82
2022/04/03 08:06:11;;;;;;;14.63;6.55;;;;;;;3.03;68.42;98219.70;1716758;83;20965;-83
2022/04/03 08:08:38;;;;;;;15.28;8.35;;;;;;;3.07;68.27;98226.08;1723127;83;20971;-83
2022/04/03 08:11:05;;;;;;;15.85;7.97;;;;;;;3.06;68.02;98233.34;1708602;83;20992;-85
2022/04/03 08:13:31;;;;;;;13.60;7.95;;;;;;;3.09;67.39;98232.48;1727552;83;20964;-83
2022/04/03 08:15:58;;;;;;;15.10;7.50;;;;;;;3.11;66.55;98232.05;1717391;83;20980;-83
2022/04/03 08:18:25;;;;;;;13.43;6.97;;;;;;;3.15;67.41;98233.27;1704177;83;20964;-84
2022/04/03 08:20:51;;;;;;;14.65;6.78;;;;;;;3.21;66.07;98238.79;1724448;83;21479;-83
2022/04/03 08:23:18;;;;;;;18.30;7.22;;;;;;;3.21;65.09;98238.79;1725877;82;21079;-82
2022/04/03 08:25:45;;;;;;;14.23;7.25;;;;;;;3.19;65.17;98250.36;1710171;83;20972;-85
2022/04/03 08:28:15;;;;;;;14.43;7.75;;;;;;;3.24;65.21;98245.17;1728872;83;20959;-85
2022/04/03 08:30:41;;;;;;;15.10;7.53;;;;;;;3.24;65.13;98249.46;1724429;83;21000;-82
2022/04/03 08:33:13;;;;;;;18.90;8.48;;;;;;;3.18;64.94;98257.66;1712580;83;20945;-83
2022/04/03 08:35:40;;;;;;;14.00;7.05;;;;;;;3.17;64.23;98252.53;1719630;83;20983;-86
2022/04/03 08:38:09;;;;;;;12.47;6.40;;;;;;;3.15;64.77;98262.81;1723164;83;20972;-84
2022/04/03 08:40:36;;;;;;;13.85;6.95;;;;;;;3.17;64.65;98275.20;1727974;83;21001;-83
2022/04/03 08:43:04;;;;;;;17.07;6.67;;;;;;;3.18;64.42;98279.49;1719298;83;21079;-85
2022/04/03 08:45:32;;;;;;;15.30;8.00;;;;;;;3.14;64.29;98282.08;1728710;83;20999;-84
2022/04/03 08:48:01;;;;;;;15.93;8.90;;;;;;;3.16;64.49;98290.22;1716861;83;21012;-83
2022/04/03 08:50:35;;;;;;;17.05;8.30;;;;;;;3.11;63.78;98291.11;1715099;83;21028;-83
2022/04/03 08:53:04;;;;;;;;;;;;;;;3.15;64.50;98302.63;1724979;83;21510;-80
2022/04/03 08:55:32;;;;;;;17.25;7.85;;;;;;;3.10;63.96;98294.53;1718183;83;20632;-85
2022/04/03 08:57:59;;;;;;;16.35;8.85;;;;;;;3.14;64.22;98309.05;1715801;83;21040;-84
2022/04/03 09:00:26;;;;;;;16.02;8.33;;;;;;;3.05;64.28;98306.57;1727556;83;20983;-83
2022/04/03 09:02:52;;;;;;;19.73;9.50;;;;;;;3.03;64.78;98314.72;1720469;83;20996;-81
2022/04/03 09:05:20;;;;;;;18.52;9.43;;;;;;;3.05;65.49;98334.82;1712030;83;21051;-80
2022/04/03 09:08:01;;;;;;;20.23;8.80;;;;;;;3.06;64.98;98324.95;1716602;83;21468;-82
2022/04/03 09:10:28;;;;;;;18.73;8.78;;;;;;;3.08;65.00;98318.09;1713421;83;20993;-80
2022/04/03 09:12:55;;;;;;;15.25;7.58;;;;;;;2.99;64.90;98332.70;1710754;84;21004;-84
2022/04/03 09:15:23;;;;;;;19.12;10.08;;;;;;;3.04;65.02;98332.66;1708777;83;21028;-83
2022/04/03 09:17:56;;;;;;;16.62;8.08;;;;;;;2.94;64.56;98335.72;1713927;84;21000;-79
2022/04/03 09:20:25;;;;;;;14.40;8.00;;;;;;;2.95;64.85;98344.30;1714502;84;20973;-81
2022/04/03 09:22:55;;;;;;;21.17;8.98;;;;;;;2.98;65.01;98340.41;1714694;82;21560;-82
2022/04/03 09:25:34;;;;;;;16.07;8.10;;;;;;;2.99;64.92;98332.70;1688728;84;20979;-79
2022/04/03 09:28:07;;;;;;;17.27;9.13;;;;;;;3.07;64.94;98345.93;1696193;82;20955;-83
2022/04/03 09:30:46;;;;;;;17.60;8.83;;;;;;;3.02;64.29;98329.69;1713545;84;20989;-82
2022/04/03 09:33:20;;;;;;;15.68;7.92;;;;;;;3.11;64.72;98334.77;1715654;84;21016;-83
2022/04/03 09:36:02;;;;;;;20.35;8.28;;;;;;;3.12;64.59;98338.63;1713711;83;21005;-87
2022/04/03 09:38:32;;;;;;;15.38;7.97;;;;;;;3.20;64.88;98320.55;1715371;83;20969;-86
2022/04/03 09:41:00;;;;;;;13.98;7.62;;;;;;;3.29;64.33;98319.65;1710733;82;20968;-86
2022/04/03 09:43:31;;;;;;;14.60;7.05;;;;;;;3.36;64.26;98318.30;1714744;83;20981;-88
2022/04/03 09:46:00;;;;;;;16.05;8.58;;;;;;;3.46;64.67;98313.06;1702998;84;21504;-85
2022/04/03 09:48:39;;;;;;;16.73;8.48;;;;;;;3.55;64.40;98308.70;1699006;83;20977;-88
2022/04/03 09:51:12;;;;;;;16.00;8.30;;;;;;;3.75;64.73;98304.64;1699403;84;20988;-87
2022/04/03 09:53:53;;;;;;;15.07;7.93;;;;;;;3.91;64.21;98308.34;1715342;84;20953;-85
2022/04/03 09:56:34;;;;;;;13.88;7.58;;;;;;;4.01;63.51;98304.80;1704653;84;21041;-86
2022/04/03 09:59:04;;;;;;;18.42;9.25;;;;;;;4.28;63.60;98296.34;1714398;83;21008;-88
2022/04/03 10:01:42;;;;;;;17.30;9.03;;;;;;;4.19;64.12;98309.72;1704124;83;21036;-85
2022/04/03 10:04:16;;;;;;;13.95;7.40;;;;;;;4.30;64.24;98314.75;1697384;84;21008;-89
2022/04/03 10:06:43;;;;;;;15.90;8.10;;;;;;;4.50;64.04;98313.65;1715024;83;20985;-86
2022/04/03 10:09:14;;;;;;;18.77;9.20;;;;;;;4.60;64.44;98325.52;1733329;82;20972;-85
2022/04/03 10:11:42;;;;;;;14.75;7.92;;;;;;;4.81;64.08;98314.50;1725173;82;21011;-88
2022/04/03 10:14:11;;;;;;;15.25;7.47;;;;;;;4.73;64.31;98321.04;1734417;82;20991;-84
2022/04/03 10:16:38;;;;;;;13.25;7.05;;;;;;;4.93;64.39;98306.17;1732891;83;20952;-87
2022/04/03 10:19:05;;;;;;;12.65;8.00;;;;;;;4.88;64.35;98300.67;1733155;82;20967;-84
2022/04/03 10:21:45;;;;;;;16.67;7.33;;;;;;;5.04;64.14;98305.16;1728594;83;21570;-84
2022/04/03 10:24:19;;;;;;;10.88;6.45;;;;;;;5.04;64.13;98310.31;1733270;82;21007;-83
2022/04/03 10:26:58;;;;;;;11.63;7.05;;;;;;;5.19;63.74;98304.89;1730557;82;21030;-86
2022/04/03 10:29:32;;;;;;;13.95;7.08;;;;;;;5.21;64.45;98308.30;1733944;82;20957;-85
2022/04/03 10:32:03;;;;;;;11.15;5.67;;;;;;;5.21;63.71;98316.47;1731629;82;21004;-86
2022/04/03 10:34:30;;;;;;;12.45;6.33;;;;;;;5.26;63.38;98316.81;1733495;83;21031;-85
2022/04/03 10:36:57;;;;;;;11.57;6.33;;;;;;;5.15;63.71;98323.86;1734624;83;20968;-84
2022/04/03 10:39:29;;;;;;;10.13;6.03;;;;;;;5.09;63.87;98332.55;1733494;82;20996;-83
2022/04/03 10:42:25;;;;;;;11.60;6.12;;;;;;;5.24;63.50;98322.88;1734768;83;21028;-86
2022/04/03 10:45:13;;;;;;;9.40;5.90;;;;;;;5.12;64.24;98324.77;1731259;82;20975;-88
2022/04/03 10:47:42;;;;;;;8.77;4.73;;;;;;;5.03;64.79;98327.91;1706067;83;20948;-91
2022/04/03 10:50:12;;;;;;;8.80;4.70;;;;;;;5.07;63.75;98326.55;1698706;83;21495;-88
2022/04/03 10:52:44;;;;;;;10.18;4.25;;;;;;;5.03;63.50;98333.91;1723929;83;20988;-85
2022/04/03 10:55:27;;;;;;;8.13;4.45;;;;;;;5.04;64.00;98324.48;1725077;83;20995;-84
2022/04/03 10:58:03;;;;;;;8.38;5.62;;;;;;;5.08;64.00;98339.86;1725692;83;21020;-84
2022/04/03 11:00:32;;;;;;;9.35;5.35;;;;;;;5.04;64.42;98331.76;1732229;83;20985;-89
2022/04/03 11:03:03;;;;;;;7.85;4.95;;;;;;;4.98;64.88;98342.16;1733051;82;20968;-87
2022/04/03 11:05:39;;;;;;;8.18;4.65;;;;;;;5.08;63.89;98348.88;1720039;83;21424;-88
2022/04/03 11:08:11;;;;;;;7.80;4.33;;;;;;;4.93;63.66;98358.98;1731399;82;21016;-87
2022/04/03 11:10:54;;;;;;;9.23;4.53;;;;;;;4.95;64.22;98355.94;1705989;83;21035;-82
2022/04/03 11:13:34;;;;;;;8.53;4.00;;;;;;;4.86;64.52;98368.94;1718768;83;21484;-83
2022/04/03 11:16:08;;;;;;;7.35;4.40;;;;;;;4.90;64.76;98365.45;1720807;83;21007;-84
2022/04/03 11:18:44;;;;;;;8.50;4.22;;;;;;;4.86;64.93;98366.36;1706700;83;20920;-83
2022/04/03 11:21:23;;;;;;;7.62;3.87;;;;;;;4.91;64.56;98365.00;1718854;83;21019;-82
2022/04/03 11:24:04;;;;;;;6.75;3.87;;;;;;;4.91;64.28;98371.00;1721045;83;20992;-85
2022/04/03 11:26:32;;;;;;;7.00;4.12;;;;;;;5.01;64.65;98378.61;1717599;83;20957;-87
2022/04/03 11:28:59;;;;;;;7.17;3.92;;;;;;;5.01;64.63;98379.89;1728632;83;21008;-85
2022/04/03 11:31:27;;;;;;;6.72;3.87;;;;;;;5.05;64.14;98390.57;1725170;83;20983;-85
2022/04/03 11:33:54;;;;;;;7.40;4.33;;;;;;;4.99;64.10;98385.06;1720300;83;20968;-83
2022/04/03 11:36:27;;;;;;;7.15;4.03;;;;;;;4.90;63.75;98398.09;1717167;83;20976;-85
2022/04/03 11:38:55;;;;;;;8.08;3.45;;;;;;;4.98;63.67;98394.97;1728685;83;20932;-87
2022/04/03 11:41:35;;;;;;;7.08;3.60;;;;;;;5.07;63.32;98408.14;1724684;83;20996;-88
2022/04/03 11:44:07;;;;;;;6.70;3.80;;;;;;;5.16;63.58;98402.88;1723954;83;21000;-84